Time;durP1;ratioP1;P1;durP2;ratioP2;P2;SDS_P1;SDS_P2;PMS_P1;PMS_P2;Temp;Humidity;BMP_temperature;BMP_pressure;BME280_temperature;BME280_humidity;BME280_pressure;Samples;Min_cycle;Max_cycle;Signal;HPM_P1;HPM_P2
2021/11/05 00:00:43;;;;;;;9.80;3.97;;;7.30;99.90;;;8.13;100.00;97921.66;5024409;28;21034;-83
2021/11/05 00:03:12;;;;;;;4.73;3.40;;;7.30;99.90;;;8.09;100.00;97920.38;5029247;28;20504;-83
2021/11/05 00:05:40;;;;;;;4.67;3.53;;;7.30;99.90;;;8.10;100.00;97917.63;5030954;28;20457;-83
2021/11/05 00:08:10;;;;;;;4.57;3.53;;;7.40;99.90;;;8.12;100.00;97920.06;5036580;28;20506;-83
2021/11/05 00:10:42;;;;;;;6.10;3.47;;;7.40;99.90;;;8.12;100.00;97927.88;5017879;28;20470;-83
2021/11/05 00:13:12;;;;;;;4.80;3.60;;;7.40;99.90;;;8.14;100.00;97928.50;5037113;28;20905;-84
2021/11/05 00:15:41;;;;;;;4.27;3.33;;;7.30;99.90;;;8.11;100.00;97934.06;5033698;28;20864;-83
2021/11/05 00:18:10;;;;;;;5.40;4.07;;;7.40;99.90;;;8.10;100.00;97930.63;5023884;28;20470;-83
2021/11/05 00:20:39;;;;;;;4.20;2.90;;;7.40;99.90;;;8.10;100.00;97946.25;5029429;28;20544;-84
2021/11/05 00:23:11;;;;;;;4.97;3.70;;;7.40;99.90;;;8.14;100.00;97938.91;5030326;28;21027;-83
2021/11/05 00:25:41;;;;;;;3.80;3.00;;;7.50;99.90;;;8.12;100.00;97937.47;5027564;28;21003;-83
2021/11/05 00:28:11;;;;;;;4.47;3.27;;;7.40;99.90;;;8.12;100.00;97947.88;5022028;28;20947;-84
2021/11/05 00:30:41;;;;;;;4.67;3.40;;;7.30;99.90;;;8.12;100.00;97950.50;5036949;28;20536;-83
2021/11/05 00:33:10;;;;;;;3.83;3.43;;;7.30;99.90;;;8.15;100.00;97955.34;5041084;28;20468;-83
2021/11/05 00:35:38;;;;;;;5.27;3.93;;;7.40;99.90;;;8.16;100.00;97960.38;5035609;28;20458;-83
2021/11/05 00:38:07;;;;;;;6.50;3.83;;;7.30;99.90;;;8.16;100.00;97957.75;5038256;28;20981;-83
2021/11/05 00:40:35;;;;;;;4.73;3.50;;;7.40;99.90;;;8.18;100.00;97955.81;5035860;28;20551;-83
2021/11/05 00:43:06;;;;;;;6.10;3.87;;;7.40;99.90;;;8.17;100.00;97962.00;5032584;28;20465;-84
2021/11/05 00:45:34;;;;;;;6.13;3.67;;;7.40;99.90;;;8.16;100.00;97968.19;5034794;28;20816;-83
2021/11/05 00:48:03;;;;;;;4.13;3.40;;;7.30;99.90;;;8.15;100.00;97971.78;5041078;28;21011;-83
2021/11/05 00:50:32;;;;;;;10.00;3.63;;;7.40;99.90;;;8.12;100.00;97963.50;5032767;28;20493;-83
2021/11/05 00:53:01;;;;;;;4.47;3.37;;;7.30;99.90;;;8.09;100.00;97969.84;5031988;28;20457;-84
2021/11/05 00:55:30;;;;;;;4.50;3.13;;;7.30;99.90;;;8.10;100.00;97971.47;5030905;28;20469;-83
2021/11/05 00:57:58;;;;;;;5.60;3.80;;;7.30;99.90;;;8.08;100.00;97978.66;5032671;28;20454;-83
2021/11/05 01:00:32;;;;;;;3.87;3.10;;;7.20;99.90;;;8.06;100.00;97973.63;5024686;28;20502;-83
2021/11/05 01:03:02;;;;;;;4.40;3.30;;;7.20;99.90;;;8.06;100.00;97978.00;5031418;28;20506;-83
2021/11/05 01:05:32;;;;;;;4.10;3.53;;;7.30;99.90;;;8.06;100.00;97973.63;5031941;28;20530;-84
2021/11/05 01:08:01;;;;;;;8.03;3.30;;;7.30;99.90;;;8.07;100.00;97982.25;5039624;28;20460;-84
2021/11/05 01:10:31;;;;;;;5.03;3.63;;;7.30;99.90;;;8.05;100.00;97979.03;5035988;28;20460;-83
2021/11/05 01:12:59;;;;;;;4.00;3.60;;;7.30;99.90;;;8.05;100.00;97986.84;5035810;28;20468;-83
2021/11/05 01:15:30;;;;;;;7.60;3.40;;;7.30;99.90;;;8.05;100.00;97986.84;5032395;28;20459;-83
2021/11/05 01:17:59;;;;;;;5.47;3.80;;;7.30;99.90;;;8.05;100.00;97992.03;5033527;28;20557;-83
2021/11/05 01:20:27;;;;;;;10.33;3.73;;;7.20;99.90;;;8.00;100.00;97994.34;5028470;28;20511;-83
2021/11/05 01:22:56;;;;;;;5.10;3.40;;;7.20;99.90;;;7.93;100.00;97993.41;5026810;28;20463;-83
2021/11/05 01:25:25;;;;;;;4.20;3.20;;;7.10;99.90;;;7.83;100.00;98000.63;5035463;28;20473;-83
2021/11/05 01:27:55;;;;;;;4.93;3.97;;;6.80;99.90;;;7.84;100.00;98002.25;5031392;28;20852;-83
2021/11/05 01:30:26;;;;;;;11.73;4.20;;;6.90;99.90;;;7.86;100.00;98005.47;5038343;28;20557;-83
2021/11/05 01:32:57;;;;;;;17.03;3.93;;;7.00;99.90;;;7.85;100.00;98007.25;5029532;28;20998;-84
2021/11/05 01:35:25;;;;;;;4.70;3.93;;;7.10;99.90;;;7.84;100.00;98005.66;5039832;28;20474;-84
2021/11/05 01:37:57;;;;;;;6.27;3.77;;;7.10;99.90;;;7.81;100.00;98010.41;5027748;28;20492;-84
2021/11/05 01:40:29;;;;;;;5.40;3.40;;;7.00;99.90;;;7.82;100.00;98012.00;5036746;28;20893;-84
2021/11/05 01:43:01;;;;;;;4.20;3.03;;;7.00;99.90;;;7.85;100.00;98019.47;5036120;28;20514;-84
2021/11/05 01:45:31;;;;;;;5.60;3.20;;;7.10;99.90;;;7.84;100.00;98015.25;5026942;28;20466;-83
2021/11/05 01:48:02;;;;;;;8.73;4.20;;;7.10;99.90;;;7.82;100.00;98014.59;5037287;28;20461;-84
2021/11/05 01:50:31;;;;;;;5.80;3.90;;;6.90;99.90;;;7.78;100.00;98021.13;5030702;28;20458;-84
2021/11/05 01:53:00;;;;;;;5.07;3.40;;;6.80;99.90;;;7.74;100.00;98019.88;5039172;28;20531;-83
2021/11/05 01:55:29;;;;;;;5.97;3.80;;;6.70;99.90;;;7.71;100.00;98025.38;5032813;28;20985;-83
2021/11/05 01:57:59;;;;;;;4.73;4.10;;;6.80;99.90;;;7.71;100.00;98030.59;5034316;28;20469;-83
2021/11/05 02:00:32;;;;;;;4.80;3.40;;;6.90;99.90;;;7.74;100.00;98032.88;5022291;28;20479;-84
2021/11/05 02:03:02;;;;;;;6.40;3.67;;;6.90;99.90;;;7.72;100.00;98032.22;5033200;28;20468;-83
2021/11/05 02:05:31;;;;;;;7.93;3.57;;;6.90;99.90;;;7.70;100.00;98034.19;5036858;28;20442;-83
2021/11/05 02:08:03;;;;;;;7.67;4.60;;;6.90;99.90;;;7.67;100.00;98039.75;5035683;28;20457;-83
2021/11/05 02:10:33;;;;;;;7.73;3.67;;;6.80;99.90;;;7.65;100.00;98034.69;5030610;28;20460;-84
2021/11/05 02:13:02;;;;;;;5.73;4.33;;;6.80;99.90;;;7.66;100.00;98040.72;5029575;28;20520;-84
2021/11/05 02:15:31;;;;;;;7.40;4.23;;;6.80;99.90;;;7.66;100.00;98044.13;5030000;28;20529;-84
2021/11/05 02:18:02;;;;;;;5.93;4.07;;;6.80;99.90;;;7.67;100.00;98044.94;5029826;28;20516;-83
2021/11/05 02:20:31;;;;;;;6.93;4.47;;;6.80;99.90;;;7.68;100.00;98052.56;5030372;28;20544;-83
2021/11/05 02:23:04;;;;;;;5.67;4.37;;;6.80;99.90;;;7.65;100.00;98049.50;5028402;28;20508;-83
2021/11/05 02:25:33;;;;;;;7.53;5.00;;;6.70;99.90;;;7.65;100.00;98046.88;5031920;28;20564;-83
2021/11/05 02:28:02;;;;;;;7.87;4.90;;;6.70;99.90;;;7.65;100.00;98062.50;5033941;28;20457;-84
2021/11/05 02:30:30;;;;;;;5.80;4.40;;;6.70;99.90;;;7.65;100.00;98059.91;5036262;28;20494;-83
2021/11/05 02:32:59;;;;;;;6.33;4.10;;;6.80;99.90;;;7.68;100.00;98067.38;5032722;28;20469;-83
2021/11/05 02:35:27;;;;;;;9.10;4.80;;;6.80;99.90;;;7.66;100.00;98064.13;5029524;28;20473;-83
2021/11/05 02:37:56;;;;;;;5.93;5.10;;;6.90;99.90;;;7.64;100.00;98068.66;5034373;28;20497;-83
2021/11/05 02:40:26;;;;;;;7.43;4.10;;;6.80;99.90;;;7.57;100.00;98074.56;5033320;28;20530;-83
2021/11/05 02:42:55;;;;;;;5.40;3.70;;;6.70;99.90;;;7.59;100.00;98075.22;5026814;28;20577;-83
2021/11/05 02:45:24;;;;;;;8.97;4.30;;;6.70;99.90;;;7.59;100.00;98079.59;5032516;28;20923;-83
2021/11/05 02:47:53;;;;;;;6.13;3.80;;;6.70;99.90;;;7.59;100.00;98084.81;5032919;28;20459;-83
2021/11/05 02:50:22;;;;;;;13.40;5.37;;;6.70;99.90;;;7.60;100.00;98092.44;5032843;28;20515;-84
2021/11/05 02:52:50;;;;;;;9.60;4.77;;;6.70;99.90;;;7.59;100.00;98088.22;5033870;28;20523;-83
2021/11/05 02:55:21;;;;;;;5.60;3.77;;;6.70;99.90;;;7.56;100.00;98088.56;5027303;28;20521;-83
2021/11/05 02:57:51;;;;;;;8.33;4.90;;;6.70;99.90;;;7.50;100.00;98094.41;5029324;28;20477;-83
2021/11/05 03:00:20;;;;;;;5.53;4.00;;;6.60;99.90;;;7.51;100.00;98097.81;5030266;28;20516;-83
2021/11/05 03:02:49;;;;;;;6.47;4.17;;;6.60;99.90;;;7.51;100.00;98101.25;5025858;28;20462;-83
2021/11/05 03:05:17;;;;;;;8.73;4.73;;;6.60;99.90;;;7.50;100.00;98109.22;5029224;28;20474;-83
2021/11/05 03:07:46;;;;;;;9.03;5.00;;;6.60;99.90;;;7.47;100.00;98112.97;5038403;28;21895;-83
2021/11/05 03:10:17;;;;;;;16.87;4.30;;;6.60;99.90;;;7.45;100.00;98109.72;5030502;28;20486;-83
2021/11/05 03:12:46;;;;;;;5.97;4.10;;;6.60;99.90;;;7.43;100.00;98114.25;5023328;28;20872;-83
2021/11/05 03:15:16;;;;;;;5.63;4.10;;;6.50;99.90;;;7.38;100.00;98124.38;5026952;28;20532;-83
2021/11/05 03:17:46;;;;;;;6.50;4.17;;;6.50;99.90;;;7.34;100.00;98130.88;5029977;28;20468;-83
2021/11/05 03:20:15;;;;;;;7.80;5.20;;;6.40;99.90;;;7.34;100.00;98130.88;5028452;28;20853;-83
2021/11/05 03:22:44;;;;;;;10.60;5.20;;;6.40;99.90;;;7.34;100.00;98133.47;5032320;28;20468;-83
2021/11/05 03:25:13;;;;;;;6.80;4.97;;;6.40;99.90;;;7.33;100.00;98137.03;5034636;28;20446;-84
2021/11/05 03:27:43;;;;;;;6.93;4.47;;;6.50;99.90;;;7.32;100.00;98135.44;5031623;28;21034;-83
2021/11/05 03:30:19;;;;;;;7.63;4.80;;;6.50;99.90;;;7.32;100.00;98132.84;5031829;28;20510;-83
2021/11/05 03:32:48;;;;;;;7.20;5.00;;;6.50;99.90;;;7.30;100.00;98145.16;5032579;28;20863;-83
2021/11/05 03:35:16;;;;;;;10.53;4.33;;;6.50;99.90;;;7.32;100.00;98152.81;5031286;28;20558;-83
2021/11/05 03:37:46;;;;;;;8.20;4.63;;;6.60;99.90;;;7.32;100.00;98156.25;5034110;28;20543;-83
2021/11/05 03:40:19;;;;;;;10.17;5.23;;;6.60;99.90;;;7.30;100.00;98160.78;5032870;28;20545;-83
2021/11/05 03:42:48;;;;;;;7.50;5.13;;;6.60;99.90;;;7.31;100.00;98159.81;5029487;28;20564;-83
2021/11/05 03:45:20;;;;;;;9.90;5.23;;;6.60;99.90;;;7.30;100.00;98173.78;5032629;28;20456;-83
2021/11/05 03:47:50;;;;;;;7.23;5.57;;;6.50;99.90;;;7.31;100.00;98175.41;5030169;28;20481;-81
2021/11/05 03:50:19;;;;;;;8.90;4.67;;;6.50;99.90;;;7.26;100.00;98182.06;5032126;28;20485;-82
2021/11/05 03:52:48;;;;;;;8.17;5.57;;;6.50;99.90;;;7.24;100.00;98184.84;5032467;28;20449;-81
2021/11/05 03:55:17;;;;;;;6.37;5.23;;;6.40;99.90;;;7.21;100.00;98190.38;5031242;28;20857;-82
2021/11/05 03:57:46;;;;;;;8.00;5.00;;;6.30;99.90;;;7.21;100.00;98195.56;5027232;28;20598;-82
2021/11/05 04:00:15;;;;;;;8.07;4.90;;;6.40;99.90;;;7.21;100.00;98197.34;5028945;28;20462;-82
2021/11/05 04:02:45;;;;;;;6.60;5.40;;;6.40;99.90;;;7.21;100.00;98205.97;5029302;28;20489;-81
2021/11/05 04:05:17;;;;;;;7.27;4.50;;;6.30;99.90;;;7.20;100.00;98203.53;5025723;28;21147;-82
2021/11/05 04:07:46;;;;;;;5.37;4.47;;;6.30;99.90;;;7.15;100.00;98205.81;5040421;28;20462;-81
2021/11/05 04:10:14;;;;;;;5.57;4.60;;;6.30;99.90;;;7.12;100.00;98212.13;5029561;28;20815;-82
2021/11/05 04:12:43;;;;;;;5.10;4.50;;;6.30;99.90;;;7.12;100.00;98221.72;5027886;28;20470;-82
2021/11/05 04:15:11;;;;;;;8.50;4.83;;;6.30;99.90;;;7.09;100.00;98223.66;5029447;28;20965;-82
2021/11/05 04:17:40;;;;;;;5.17;4.07;;;6.30;99.90;;;7.09;100.00;98228.06;5031585;28;20543;-82
2021/11/05 04:20:12;;;;;;;7.33;4.60;;;6.30;99.90;;;7.06;100.00;98233.56;5035257;28;20869;-82
2021/11/05 04:22:41;;;;;;;7.57;4.53;;;6.20;99.90;;;7.05;100.00;98234.53;5039553;28;20485;-82
2021/11/05 04:25:11;;;;;;;6.90;4.27;;;6.10;99.90;;;7.00;100.00;98239.41;5032140;28;20505;-81
2021/11/05 04:27:39;;;;;;;16.63;5.50;;;6.10;99.90;;;6.98;100.00;98243.94;5025467;28;21183;-82
2021/11/05 04:30:13;;;;;;;8.53;4.90;;;6.00;99.90;;;6.95;100.00;98246.88;5035076;28;20487;-82
2021/11/05 04:32:42;;;;;;;34.73;5.83;;;6.10;99.90;;;6.85;100.00;98241.81;5041636;28;20516;-82
2021/11/05 04:35:12;;;;;;;24.90;5.83;;;6.10;99.90;;;6.83;100.00;98251.56;5032284;28;20868;-82
2021/11/05 04:37:41;;;;;;;56.20;12.97;;;6.00;99.90;;;6.83;100.00;98255.94;5033427;28;20509;-83
2021/11/05 04:40:11;;;;;;;34.27;7.80;;;6.00;99.90;;;6.82;100.00;98262.94;5027190;28;20504;-81
2021/11/05 04:42:40;;;;;;;7.40;4.80;;;6.00;99.90;;;6.83;100.00;98258.56;5038344;28;20533;-81
2021/11/05 04:45:09;;;;;;;6.50;5.30;;;6.00;99.90;;;6.81;100.00;98261.28;5031964;28;20472;-80
2021/11/05 04:47:38;;;;;;;11.83;3.63;;;5.90;99.90;;;6.82;100.00;98262.13;5027252;28;20993;-82
2021/11/05 04:50:09;;;;;;;5.67;4.00;;;6.00;99.90;;;6.81;100.00;98270.88;5031826;28;20930;-81
2021/11/05 04:52:39;;;;;;;8.57;5.53;;;6.00;99.90;;;6.81;100.00;98273.47;5028792;28;20457;-81
2021/11/05 04:55:08;;;;;;;9.53;4.70;;;5.90;99.90;;;6.80;100.00;98271.88;5033908;28;20453;-81
2021/11/05 04:57:37;;;;;;;15.73;4.70;;;5.90;99.90;;;6.84;100.00;98273.97;5029379;28;20496;-82
2021/11/05 05:00:08;;;;;;;16.10;5.53;;;6.00;99.90;;;6.82;100.00;98277.69;5034593;28;21173;-81
2021/11/05 05:02:37;;;;;;;22.43;6.27;;;6.00;99.90;;;6.80;100.00;98275.28;5028609;28;20500;-82
2021/11/05 05:05:11;;;;;;;59.10;6.20;;;6.00;99.90;;;6.78;100.00;98282.41;5029553;28;20473;-82
2021/11/05 05:07:42;;;;;;;26.70;5.73;;;5.90;99.90;;;6.75;100.00;98292.28;5026696;28;20853;-82
2021/11/05 05:10:12;;;;;;;30.97;5.63;;;5.90;99.90;;;6.74;100.00;98293.25;5024476;28;20543;-82
2021/11/05 05:12:42;;;;;;;46.60;7.50;;;5.90;99.90;;;6.70;100.00;98300.56;5031523;28;20876;-82
2021/11/05 05:15:13;;;;;;;9.73;5.27;;;5.80;99.90;;;6.61;100.00;98300.69;5029911;28;20477;-82
2021/11/05 05:17:43;;;;;;;15.07;4.87;;;5.80;99.90;;;6.58;100.00;98310.44;5032494;28;21187;-82
2021/11/05 05:20:16;;;;;;;11.27;5.73;;;5.80;99.90;;;6.59;100.00;98314.63;5033200;28;20442;-82
2021/11/05 05:22:48;;;;;;;8.00;5.30;;;5.80;99.90;;;6.64;100.00;98305.56;5034308;28;20551;-82
2021/11/05 05:25:19;;;;;;;11.00;5.90;;;5.80;99.90;;;6.66;100.00;98319.22;5028682;28;20587;-80
2021/11/05 05:27:50;;;;;;;8.90;5.83;;;5.90;99.90;;;6.63;100.00;98309.16;5030597;28;20524;-80
2021/11/05 05:30:19;;;;;;;7.20;5.13;;;5.90;99.90;;;6.61;100.00;98322.28;5038047;28;20465;-81
2021/11/05 05:32:50;;;;;;;9.90;4.60;;;5.80;99.90;;;6.64;100.00;98318.56;5027913;28;20519;-80
2021/11/05 05:35:21;;;;;;;8.27;5.10;;;5.80;99.90;;;6.66;100.00;98319.22;5029347;28;20454;-80
2021/11/05 05:37:53;;;;;;;5.80;4.63;;;5.80;99.90;;;6.64;100.00;98321.16;5035098;28;20466;-81
2021/11/05 05:40:24;;;;;;;6.60;4.70;;;5.90;99.90;;;6.59;100.00;98330.22;5040382;28;20824;-81
2021/11/05 05:42:53;;;;;;;5.77;4.47;;;5.70;99.90;;;6.58;100.00;98328.63;5030139;28;20567;-80
2021/11/05 05:45:22;;;;;;;6.70;4.97;;;5.70;99.90;;;6.57;100.00;98326.97;5036594;28;20460;-80
2021/11/05 05:47:51;;;;;;;9.63;5.13;;;5.60;99.90;;;6.57;100.00;98332.16;5039530;28;20438;-81
2021/11/05 05:50:19;;;;;;;6.40;4.80;;;5.70;99.90;;;6.57;100.00;98342.56;5037250;28;20504;-81
2021/11/05 05:52:49;;;;;;;7.60;4.60;;;5.70;99.90;;;6.58;100.00;98351.16;5041539;28;20441;-80
2021/11/05 05:55:18;;;;;;;6.77;4.70;;;5.70;99.90;;;6.53;100.00;98349.03;5036834;28;20434;-80
2021/11/05 05:57:47;;;;;;;5.47;3.63;;;5.70;99.90;;;6.43;100.00;98360.50;5032348;28;20522;-80
2021/11/05 06:00:16;;;;;;;8.00;4.60;;;5.60;99.90;;;6.35;100.00;98363.84;5031695;28;20458;-81
2021/11/05 06:02:46;;;;;;;5.70;4.40;;;5.40;99.90;;;6.31;100.00;98361.72;5035105;28;20490;-81
2021/11/05 06:05:15;;;;;;;19.93;5.10;;;5.40;99.90;;;6.33;100.00;98364.97;5038565;28;20446;-80
2021/11/05 06:07:44;;;;;;;7.00;4.50;;;5.50;99.90;;;6.31;100.00;98372.13;5041549;28;20433;-80
2021/11/05 06:10:14;;;;;;;7.57;4.93;;;5.40;99.90;;;6.29;100.00;98372.25;5038743;28;20457;-80
2021/11/05 06:12:43;;;;;;;8.10;5.10;;;5.30;99.90;;;6.27;100.00;98370.78;5045862;28;21022;-80
2021/11/05 06:15:12;;;;;;;7.43;5.23;;;5.30;99.90;;;6.27;100.00;98376.78;5041642;28;20454;-80
2021/11/05 06:17:40;;;;;;;9.33;5.70;;;5.30;99.90;;;6.30;100.00;98380.84;5037072;28;20473;-81
2021/11/05 06:20:09;;;;;;;6.53;4.93;;;5.40;99.90;;;6.24;100.00;98377.09;5038112;28;20449;-80
2021/11/05 06:22:38;;;;;;;10.90;4.73;;;5.30;99.90;;;6.19;100.00;98383.69;5042137;28;21046;-80
2021/11/05 06:25:07;;;;;;;12.67;5.33;;;5.20;99.90;;;6.23;100.00;98383.25;5040487;28;20522;-80
2021/11/05 06:27:37;;;;;;;12.27;5.07;;;5.30;99.90;;;6.27;100.00;98389.78;5043544;28;20913;-80
2021/11/05 06:30:08;;;;;;;8.77;5.40;;;5.30;99.90;;;6.26;100.00;98395.94;5040371;28;20515;-80
2021/11/05 06:32:36;;;;;;;7.33;5.13;;;5.30;99.90;;;6.25;100.00;98399.47;5044125;28;20441;-80
2021/11/05 06:35:06;;;;;;;6.37;5.10;;;5.30;99.90;;;6.21;100.00;98413.75;5033343;28;20481;-80
2021/11/05 06:37:37;;;;;;;10.77;5.83;;;5.30;99.90;;;6.22;100.00;98410.16;5035023;28;20485;-80
2021/11/05 06:40:08;;;;;;;8.80;6.93;;;5.30;99.90;;;6.22;100.00;98414.53;5041938;28;20441;-80
2021/11/05 06:42:38;;;;;;;10.63;6.90;;;5.30;99.90;;;6.24;100.00;98418.66;5036446;28;20990;-80
2021/11/05 06:45:08;;;;;;;11.67;6.47;;;5.40;99.90;;;6.25;100.00;98429.84;5040031;28;20480;-80
2021/11/05 06:47:38;;;;;;;10.13;6.30;;;5.40;99.90;;;6.18;100.00;98426.22;5036517;28;20475;-80
2021/11/05 06:50:09;;;;;;;15.60;7.30;;;5.30;99.90;;;6.23;100.00;98430.00;5034315;28;20955;-80
2021/11/05 06:52:38;;;;;;;14.63;6.90;;;5.40;99.90;;;6.24;100.00;98431.63;5036811;28;20442;-80
2021/11/05 06:55:08;;;;;;;53.03;7.53;;;5.40;99.90;;;6.23;100.00;98440.38;5036524;28;20532;-80
2021/11/05 06:57:38;;;;;;;37.50;7.77;;;5.40;99.90;;;6.23;100.00;98442.97;5037668;28;20504;-80
2021/11/05 07:00:10;;;;;;;86.13;7.87;;;5.40;99.90;;;6.25;100.00;98451.41;5027674;28;20541;-81
2021/11/05 07:02:41;;;;;;;60.70;7.70;;;5.40;99.90;;;6.18;100.00;98444.41;5038012;28;20844;-80
2021/11/05 07:05:11;;;;;;;169.03;8.50;;;5.30;99.90;;;6.20;100.00;98448.47;5039255;28;20931;-80
2021/11/05 07:07:41;;;;;;;66.83;6.80;;;5.30;99.90;;;6.21;100.00;98459.66;5039319;28;20503;-80
2021/11/05 07:10:12;;;;;;;14.13;5.53;;;5.30;99.90;;;6.23;100.00;98468.94;5035842;28;20508;-80
2021/11/05 07:12:42;;;;;;;38.23;7.57;;;5.30;99.90;;;6.24;100.00;98475.78;5038834;28;20511;-80
2021/11/05 07:15:13;;;;;;;19.27;5.13;;;5.30;99.90;;;6.23;100.00;98478.50;5035554;28;20453;-80
2021/11/05 07:17:41;;;;;;;50.20;5.97;;;5.30;99.90;;;6.22;100.00;98488.06;5039071;28;20492;-80
2021/11/05 07:20:10;;;;;;;44.73;6.60;;;5.30;99.90;;;6.15;100.00;98494.00;5036107;28;20501;-80
2021/11/05 07:22:39;;;;;;;19.17;5.10;;;5.20;99.90;;;6.13;100.00;98496.75;5042554;28;20500;-80
2021/11/05 07:25:10;;;;;;;19.07;7.10;;;5.20;99.90;;;6.15;100.00;98500.00;5027103;28;20437;-80
2021/11/05 07:27:41;;;;;;;22.60;6.37;;;5.20;99.90;;;6.13;100.00;98514.09;5040180;28;20441;-80
2021/11/05 07:30:13;;;;;;;16.80;6.57;;;5.20;99.90;;;6.19;100.00;98519.53;5040146;28;20449;-80
2021/11/05 07:32:45;;;;;;;16.57;5.70;;;5.30;99.90;;;6.22;100.00;98529.59;5045753;28;20456;-80
2021/11/05 07:35:15;;;;;;;47.63;7.17;;;5.30;99.90;;;6.20;100.00;98531.56;5042728;28;20512;-80
2021/11/05 07:37:44;;;;;;;36.60;7.30;;;5.30;99.90;;;6.17;100.00;98537.03;5031620;28;20816;-80
2021/11/05 07:40:14;;;;;;;33.50;5.60;;;5.20;99.90;;;6.15;100.00;98543.31;5039821;28;20492;-80
2021/11/05 07:42:46;;;;;;;36.07;6.23;;;5.20;99.90;;;6.22;100.00;98552.97;4991205;28;20530;-80
2021/11/05 07:45:17;;;;;;;40.27;7.20;;;5.30;99.90;;;6.26;100.00;98566.47;4993793;28;20474;-80
2021/11/05 07:47:48;;;;;;;29.77;6.33;;;5.40;99.90;;;6.28;100.00;98578.34;4995778;28;20852;-80
2021/11/05 07:50:20;;;;;;;45.53;6.90;;;5.40;99.90;;;6.37;100.00;98579.25;5005386;28;20455;-81
2021/11/05 07:52:48;;;;;;;12.83;7.97;;;5.50;99.90;;;6.41;100.00;98591.81;4997683;28;20463;-80
2021/11/05 07:55:18;;;;;;;38.57;6.37;;;5.60;99.90;;;6.42;100.00;98588.22;4995392;28;20443;-81
2021/11/05 07:57:48;;;;;;;30.20;7.00;;;5.70;99.90;;;6.45;100.00;98594.94;4991043;28;20541;-81
2021/11/05 08:00:17;;;;;;;19.53;7.60;;;5.80;99.90;;;6.45;100.00;98598.34;4982159;28;20457;-81
2021/11/05 08:02:46;;;;;;;19.87;6.43;;;5.80;99.90;;;6.47;100.00;98601.63;4999365;28;20444;-80
2021/11/05 08:05:14;;;;;;;24.10;6.43;;;5.80;99.90;;;6.45;100.00;98610.53;5000216;28;20448;-82
2021/11/05 08:07:43;;;;;;;41.30;6.63;;;5.60;99.90;;;6.44;100.00;98607.09;4997866;28;20447;-80
2021/11/05 08:10:19;;;;;;;34.50;7.63;;;5.60;99.90;;;6.38;100.00;98612.06;4995368;28;20456;-80
2021/11/05 08:12:51;;;;;;;14.27;6.00;;;5.50;99.90;;;6.43;100.00;98615.03;4998376;28;20453;-80
2021/11/05 08:15:21;;;;;;;7.10;5.70;;;5.60;99.90;;;6.47;100.00;98627.59;4996721;28;20548;-80
2021/11/05 08:17:50;;;;;;;9.30;6.80;;;5.70;99.90;;;6.52;100.00;98622.78;5000838;28;20963;-81
2021/11/05 08:20:19;;;;;;;10.83;5.90;;;5.70;99.90;;;6.56;100.00;98623.28;4990210;28;20448;-80
2021/11/05 08:22:49;;;;;;;11.77;6.40;;;5.80;99.90;;;6.59;100.00;98626.41;4993453;28;20502;-80
2021/11/05 08:25:20;;;;;;;13.20;6.63;;;5.80;99.90;;;6.64;100.00;98632.94;4998333;28;20546;-80
2021/11/05 08:27:50;;;;;;;9.20;6.40;;;5.80;99.90;;;6.66;100.00;98639.66;4988983;28;20455;-80
2021/11/05 08:30:22;;;;;;;9.67;5.70;;;5.90;99.90;;;6.70;100.00;98643.56;4997438;28;20799;-80
2021/11/05 08:32:54;;;;;;;9.23;6.77;;;5.90;99.90;;;6.77;100.00;98646.41;4994296;28;20507;-80
2021/11/05 08:35:26;;;;;;;10.40;6.63;;;6.00;99.90;;;6.77;100.00;98652.41;4989982;28;20530;-80
2021/11/05 08:37:56;;;;;;;9.00;6.43;;;6.00;99.90;;;6.81;100.00;98645.94;4994085;28;20459;-80
2021/11/05 08:40:25;;;;;;;13.83;7.07;;;6.10;99.90;;;6.85;100.00;98656.84;5003945;28;20481;-80
2021/11/05 08:42:56;;;;;;;12.93;8.53;;;6.00;99.90;;;6.85;100.00;98667.25;5040140;28;20523;-80
2021/11/05 08:45:24;;;;;;;12.17;7.30;;;6.10;99.90;;;6.86;100.00;98668.91;5043937;28;20485;-80
2021/11/05 08:47:53;;;;;;;11.03;6.60;;;6.00;99.90;;;6.87;100.00;98670.53;5038456;28;20453;-80
2021/11/05 08:50:25;;;;;;;9.47;7.17;;;6.10;99.90;;;6.86;100.00;98674.09;5034425;28;20469;-80
2021/11/05 08:52:54;;;;;;;11.17;7.00;;;6.00;99.90;;;6.87;100.00;98680.94;5035710;28;20496;-80
2021/11/05 08:55:23;;;;;;;9.97;6.80;;;6.00;99.90;;;6.89;100.00;98681.59;5041279;28;20518;-81
2021/11/05 08:57:51;;;;;;;9.17;6.37;;;6.00;99.90;;;6.89;100.00;98689.41;5034458;28;20457;-80
2021/11/05 09:00:27;;;;;;;8.43;6.50;;;6.00;99.90;;;6.86;100.00;98685.31;5034607;28;20504;-80
2021/11/05 09:02:56;;;;;;;9.70;6.20;;;6.00;99.90;;;6.87;100.00;98692.13;5042206;28;20485;-80
2021/11/05 09:05:25;;;;;;;9.50;6.90;;;6.00;99.90;;;6.89;100.00;98700.63;5041735;28;20493;-80
2021/11/05 09:07:53;;;;;;;12.17;6.60;;;6.10;99.90;;;6.89;100.00;98702.41;5045186;28;20449;-80
2021/11/05 09:10:23;;;;;;;10.47;7.10;;;6.10;99.90;;;6.90;100.00;98701.44;5038421;28;20451;-80
2021/11/05 09:12:52;;;;;;;10.40;6.40;;;6.10;99.90;;;6.91;100.00;98708.25;5040997;28;20449;-80
2021/11/05 09:15:26;;;;;;;8.60;6.23;;;6.10;99.90;;;6.92;100.00;98707.28;5036509;28;20446;-80
2021/11/05 09:17:57;;;;;;;11.47;7.47;;;6.10;99.90;;;6.92;100.00;98704.69;5041187;28;20523;-80
2021/11/05 09:20:26;;;;;;;12.50;6.70;;;6.10;99.90;;;6.98;100.00;98711.91;5037076;28;20939;-80
2021/11/05 09:22:55;;;;;;;11.60;6.97;;;6.20;99.90;;;7.00;100.00;98713.41;5042057;28;20984;-80
2021/11/05 09:25:24;;;;;;;11.60;6.57;;;6.30;99.90;;;7.01;100.00;98717.63;5037485;28;20491;-80
2021/11/05 09:27:53;;;;;;;9.17;6.57;;;6.20;99.90;;;7.06;100.00;98717.19;5042371;28;20445;-80
2021/11/05 09:30:23;;;;;;;10.93;7.67;;;6.30;99.90;;;7.09;100.00;98722.09;5042061;28;20446;-80
2021/11/05 09:32:53;;;;;;;8.97;6.53;;;6.30;99.90;;;7.13;100.00;98720.81;5040207;28;20446;-80
2021/11/05 09:35:23;;;;;;;11.30;7.23;;;6.40;99.90;;;7.16;100.00;98723.13;5047044;28;20449;-80
2021/11/05 09:37:52;;;;;;;8.50;6.27;;;6.40;99.90;;;7.20;100.00;98724.47;5040236;28;20434;-80
2021/11/05 09:40:25;;;;;;;20.97;7.07;;;6.50;99.90;;;7.22;100.00;98727.72;5040741;28;20882;-81
2021/11/05 09:42:57;;;;;;;10.60;6.50;;;6.50;99.90;;;7.27;100.00;98724.69;5037384;28;20988;-80
2021/11/05 09:45:31;;;;;;;9.57;6.37;;;6.50;99.90;;;7.29;100.00;98733.97;5046484;28;20538;-80
2021/11/05 09:48:00;;;;;;;8.93;6.27;;;6.50;99.90;;;7.35;100.00;98728.19;5047150;28;20960;-81
2021/11/05 09:50:30;;;;;;;13.57;6.70;;;6.70;99.90;;;7.42;100.00;98739.63;5040732;28;20483;-80
2021/11/05 09:53:00;;;;;;;9.60;7.10;;;6.70;99.90;;;7.47;100.00;98744.38;5043489;28;20433;-80
2021/11/05 09:55:30;;;;;;;11.87;7.07;;;6.80;99.90;;;7.52;100.00;98750.78;5037278;28;20453;-80
2021/11/05 09:57:59;;;;;;;9.90;6.57;;;6.80;99.90;;;7.60;100.00;98750.81;5030928;28;20452;-80
2021/11/05 10:00:30;;;;;;;12.47;7.20;;;6.90;99.90;;;7.69;100.00;98756.09;5030955;28;21043;-80
2021/11/05 10:02:59;;;;;;;10.10;6.07;;;7.00;99.90;;;7.78;100.00;98757.78;5040689;28;20950;-80
2021/11/05 10:05:28;;;;;;;13.00;7.20;;;7.10;99.90;;;7.86;100.00;98760.44;5039052;28;20493;-80
2021/11/05 10:08:00;;;;;;;10.27;6.93;;;7.20;99.90;;;7.93;100.00;98761.47;5044263;28;20854;-80
2021/11/05 10:10:32;;;;;;;10.47;7.00;;;7.30;99.90;;;7.99;100.00;98758.25;5036154;28;20454;-80
2021/11/05 10:13:04;;;;;;;8.33;5.67;;;7.40;99.90;;;8.04;100.00;98761.22;5037214;28;20946;-80
2021/11/05 10:15:43;;;;;;;7.80;4.43;;;7.50;99.90;;;8.09;100.00;98757.19;5039266;28;20930;-81
2021/11/05 10:18:18;;;;;;;3.67;3.03;;;7.50;99.90;;;8.11;100.00;98762.25;5036796;28;20520;-80
2021/11/05 10:20:49;;;;;;;7.60;2.80;;;7.60;99.90;;;8.15;100.00;98758.38;5041319;28;20473;-80
2021/11/05 10:23:18;;;;;;;3.93;2.97;;;7.60;99.90;;;8.20;100.00;98761.31;5039692;28;20480;-80
2021/11/05 10:25:50;;;;;;;7.73;2.40;;;7.60;99.90;;;8.26;100.00;98757.31;5041921;28;20526;-80
2021/11/05 10:28:24;;;;;;;3.23;2.23;;;7.70;99.90;;;8.29;100.00;98752.63;5036512;28;20480;-80
2021/11/05 10:31:01;;;;;;;3.47;2.50;;;7.70;99.90;;;8.35;100.00;98759.00;5046090;28;20770;-80
2021/11/05 10:33:37;;;;;;;8.13;2.77;;;7.80;99.90;;;8.39;100.00;98750.72;5047905;28;20933;-80